Little Valley, New York
Current Conditions -  °F | °C
As of 12:55 PM on Monday 24 Nov 2014 (Local Time) from KOLE Reporting Station
Overcast Overcast  
Wind Chill: 61°   Ceiling: 5000
Heat Index: 61°   Visibility: 10mi
Dew Point: 50°   Wind: 22mph
Humidity: 68%   Direction: 210°SSW
Pressure: 29.34"   Gusts: 31mph
Location:  42.25°N, 78.81°W
Report Text: KOLE 241755Z AUTO 21019G27KT 190V270 10SM SCT047 BKN050 OVC085 16/10 A2934 RMK AO2
Loading
Personal Weather Stations






























Interactive Weather Map New forecast layout! Learn more

10-Day Weather Forecast

Advertisements
Track Severe Weather on mobile